sensor_id;sensor_type;location;lat;lon;timestamp;P1;durP1;ratioP1;P2;durP2;ratioP2
49177;SDS011;35016;55.674;37.468;2022-08-19T00:01:55;10.88;;;5.55;;
49177;SDS011;35016;55.674;37.468;2022-08-19T00:04:28;8.30;;;4.07;;
49177;SDS011;35016;55.674;37.468;2022-08-19T00:07:04;9.70;;;4.78;;
49177;SDS011;35016;55.674;37.468;2022-08-19T00:09:31;10.52;;;5.15;;
49177;SDS011;35016;55.674;37.468;2022-08-19T00:11:59;10.45;;;4.75;;
49177;SDS011;35016;55.674;37.468;2022-08-19T00:14:27;9.15;;;4.90;;
49177;SDS011;35016;55.674;37.468;2022-08-19T00:16:58;8.95;;;4.05;;
49177;SDS011;35016;55.674;37.468;2022-08-19T00:19:26;10.07;;;4.03;;
49177;SDS011;35016;55.674;37.468;2022-08-19T00:21:53;9.30;;;3.75;;
49177;SDS011;35016;55.674;37.468;2022-08-19T00:24:23;9.90;;;4.65;;
49177;SDS011;35016;55.674;37.468;2022-08-19T00:26:51;10.68;;;4.72;;
49177;SDS011;35016;55.674;37.468;2022-08-19T00:29:19;9.00;;;4.10;;
49177;SDS011;35016;55.674;37.468;2022-08-19T00:31:47;10.32;;;4.22;;
49177;SDS011;35016;55.674;37.468;2022-08-19T00:34:16;9.52;;;5.00;;
49177;SDS011;35016;55.674;37.468;2022-08-19T00:36:44;9.80;;;3.55;;
49177;SDS011;35016;55.674;37.468;2022-08-19T00:39:11;11.32;;;4.75;;
49177;SDS011;35016;55.674;37.468;2022-08-19T00:41:39;8.90;;;3.80;;
49177;SDS011;35016;55.674;37.468;2022-08-19T00:44:10;9.80;;;4.75;;
49177;SDS011;35016;55.674;37.468;2022-08-19T00:46:40;10.07;;;4.33;;
49177;SDS011;35016;55.674;37.468;2022-08-19T00:51:44;9.65;;;4.32;;
49177;SDS011;35016;55.674;37.468;2022-08-19T00:54:14;11.05;;;5.38;;
49177;SDS011;35016;55.674;37.468;2022-08-19T00:56:41;9.52;;;4.63;;
49177;SDS011;35016;55.674;37.468;2022-08-19T00:59:09;11.13;;;5.20;;
49177;SDS011;35016;55.674;37.468;2022-08-19T01:01:37;9.45;;;5.00;;
49177;SDS011;35016;55.674;37.468;2022-08-19T01:04:06;11.07;;;5.05;;
49177;SDS011;35016;55.674;37.468;2022-08-19T01:06:33;9.15;;;4.53;;
49177;SDS011;35016;55.674;37.468;2022-08-19T01:09:03;14.25;;;4.93;;
49177;SDS011;35016;55.674;37.468;2022-08-19T01:11:33;9.00;;;4.45;;
49177;SDS011;35016;55.674;37.468;2022-08-19T01:14:02;12.38;;;5.75;;
49177;SDS011;35016;55.674;37.468;2022-08-19T01:16:30;10.60;;;4.60;;
49177;SDS011;35016;55.674;37.468;2022-08-19T01:18:59;9.65;;;4.88;;
49177;SDS011;35016;55.674;37.468;2022-08-19T01:21:32;9.35;;;5.15;;
49177;SDS011;35016;55.674;37.468;2022-08-19T01:24:04;13.07;;;6.13;;
49177;SDS011;35016;55.674;37.468;2022-08-19T01:26:31;8.68;;;4.07;;
49177;SDS011;35016;55.674;37.468;2022-08-19T01:29:07;10.02;;;5.40;;
49177;SDS011;35016;55.674;37.468;2022-08-19T01:31:35;11.35;;;4.72;;
49177;SDS011;35016;55.674;37.468;2022-08-19T01:34:03;9.63;;;4.50;;
49177;SDS011;35016;55.674;37.468;2022-08-19T01:36:39;9.35;;;4.72;;
49177;SDS011;35016;55.674;37.468;2022-08-19T01:39:12;11.60;;;4.55;;
49177;SDS011;35016;55.674;37.468;2022-08-19T01:41:42;9.55;;;4.78;;
49177;SDS011;35016;55.674;37.468;2022-08-19T01:44:10;8.82;;;4.47;;
49177;SDS011;35016;55.674;37.468;2022-08-19T01:46:45;10.23;;;5.00;;
49177;SDS011;35016;55.674;37.468;2022-08-19T01:49:14;11.48;;;4.95;;
49177;SDS011;35016;55.674;37.468;2022-08-19T01:51:42;9.38;;;4.53;;
49177;SDS011;35016;55.674;37.468;2022-08-19T01:54:10;9.95;;;4.68;;
49177;SDS011;35016;55.674;37.468;2022-08-19T01:59:22;8.25;;;3.83;;
49177;SDS011;35016;55.674;37.468;2022-08-19T02:01:50;9.35;;;4.18;;
49177;SDS011;35016;55.674;37.468;2022-08-19T02:04:17;12.75;;;4.25;;
49177;SDS011;35016;55.674;37.468;2022-08-19T02:06:45;8.75;;;3.33;;
49177;SDS011;35016;55.674;37.468;2022-08-19T02:09:11;12.68;;;3.78;;
49177;SDS011;35016;55.674;37.468;2022-08-19T02:11:38;9.35;;;4.05;;
49177;SDS011;35016;55.674;37.468;2022-08-19T02:14:06;10.02;;;4.20;;
49177;SDS011;35016;55.674;37.468;2022-08-19T02:16:35;9.50;;;4.57;;
49177;SDS011;35016;55.674;37.468;2022-08-19T02:19:03;8.00;;;3.80;;
49177;SDS011;35016;55.674;37.468;2022-08-19T02:21:31;8.98;;;3.72;;
49177;SDS011;35016;55.674;37.468;2022-08-19T02:23:58;8.70;;;3.88;;
49177;SDS011;35016;55.674;37.468;2022-08-19T02:26:25;8.63;;;3.17;;
49177;SDS011;35016;55.674;37.468;2022-08-19T02:28:56;7.95;;;3.97;;
49177;SDS011;35016;55.674;37.468;2022-08-19T02:31:24;11.88;;;4.00;;
49177;SDS011;35016;55.674;37.468;2022-08-19T02:33:55;8.60;;;4.40;;
49177;SDS011;35016;55.674;37.468;2022-08-19T02:36:23;8.68;;;4.85;;
49177;SDS011;35016;55.674;37.468;2022-08-19T02:38:51;10.65;;;4.75;;
49177;SDS011;35016;55.674;37.468;2022-08-19T02:41:30;9.30;;;5.05;;
49177;SDS011;35016;55.674;37.468;2022-08-19T02:44:00;10.30;;;3.90;;
49177;SDS011;35016;55.674;37.468;2022-08-19T02:46:48;8.85;;;4.22;;
49177;SDS011;35016;55.674;37.468;2022-08-19T02:49:18;10.13;;;4.90;;
49177;SDS011;35016;55.674;37.468;2022-08-19T02:51:46;8.30;;;3.85;;
49177;SDS011;35016;55.674;37.468;2022-08-19T02:54:14;10.07;;;4.68;;
49177;SDS011;35016;55.674;37.468;2022-08-19T02:56:42;9.07;;;4.47;;
49177;SDS011;35016;55.674;37.468;2022-08-19T02:59:10;10.35;;;4.85;;
49177;SDS011;35016;55.674;37.468;2022-08-19T03:01:39;12.75;;;4.78;;
49177;SDS011;35016;55.674;37.468;2022-08-19T03:04:09;12.57;;;5.07;;
49177;SDS011;35016;55.674;37.468;2022-08-19T03:06:39;9.30;;;4.50;;
49177;SDS011;35016;55.674;37.468;2022-08-19T03:09:09;10.02;;;4.60;;
49177;SDS011;35016;55.674;37.468;2022-08-19T03:11:36;8.60;;;3.78;;
49177;SDS011;35016;55.674;37.468;2022-08-19T03:14:04;9.95;;;4.50;;
49177;SDS011;35016;55.674;37.468;2022-08-19T03:16:34;9.55;;;5.05;;
49177;SDS011;35016;55.674;37.468;2022-08-19T03:19:06;10.73;;;4.43;;
49177;SDS011;35016;55.674;37.468;2022-08-19T03:21:33;10.85;;;4.28;;
49177;SDS011;35016;55.674;37.468;2022-08-19T03:24:02;8.35;;;4.25;;
49177;SDS011;35016;55.674;37.468;2022-08-19T03:26:31;13.40;;;5.10;;
49177;SDS011;35016;55.674;37.468;2022-08-19T03:29:03;8.88;;;4.47;;
49177;SDS011;35016;55.674;37.468;2022-08-19T03:31:34;10.45;;;4.70;;
49177;SDS011;35016;55.674;37.468;2022-08-19T03:34:11;11.90;;;5.25;;
49177;SDS011;35016;55.674;37.468;2022-08-19T03:36:39;8.50;;;3.95;;
49177;SDS011;35016;55.674;37.468;2022-08-19T03:39:07;9.88;;;4.68;;
49177;SDS011;35016;55.674;37.468;2022-08-19T03:41:39;8.88;;;4.43;;
49177;SDS011;35016;55.674;37.468;2022-08-19T03:44:14;12.13;;;4.63;;
49177;SDS011;35016;55.674;37.468;2022-08-19T03:46:48;10.27;;;4.72;;
49177;SDS011;35016;55.674;37.468;2022-08-19T03:51:46;8.77;;;3.97;;
49177;SDS011;35016;55.674;37.468;2022-08-19T03:54:17;8.48;;;3.88;;
49177;SDS011;35016;55.674;37.468;2022-08-19T03:56:47;11.57;;;5.03;;
49177;SDS011;35016;55.674;37.468;2022-08-19T03:59:17;10.90;;;5.15;;
49177;SDS011;35016;55.674;37.468;2022-08-19T04:01:52;15.73;;;5.60;;
49177;SDS011;35016;55.674;37.468;2022-08-19T04:04:20;9.00;;;4.63;;
49177;SDS011;35016;55.674;37.468;2022-08-19T04:06:48;12.07;;;4.85;;
49177;SDS011;35016;55.674;37.468;2022-08-19T04:09:15;11.55;;;5.20;;
49177;SDS011;35016;55.674;37.468;2022-08-19T04:11:43;9.98;;;4.90;;
49177;SDS011;35016;55.674;37.468;2022-08-19T04:14:18;9.45;;;4.70;;
49177;SDS011;35016;55.674;37.468;2022-08-19T04:16:48;11.27;;;5.05;;
49177;SDS011;35016;55.674;37.468;2022-08-19T04:19:16;13.32;;;5.25;;
49177;SDS011;35016;55.674;37.468;2022-08-19T04:21:45;10.23;;;4.13;;
49177;SDS011;35016;55.674;37.468;2022-08-19T04:24:14;12.13;;;5.18;;
49177;SDS011;35016;55.674;37.468;2022-08-19T04:26:41;10.80;;;4.53;;
49177;SDS011;35016;55.674;37.468;2022-08-19T04:29:10;9.88;;;4.63;;
49177;SDS011;35016;55.674;37.468;2022-08-19T04:31:48;8.40;;;4.32;;
49177;SDS011;35016;55.674;37.468;2022-08-19T04:34:25;9.57;;;4.82;;
49177;SDS011;35016;55.674;37.468;2022-08-19T04:36:55;10.48;;;4.75;;
49177;SDS011;35016;55.674;37.468;2022-08-19T04:39:28;9.77;;;5.20;;
49177;SDS011;35016;55.674;37.468;2022-08-19T04:42:18;10.10;;;4.15;;
49177;SDS011;35016;55.674;37.468;2022-08-19T04:49:18;9.55;;;4.05;;
49177;SDS011;35016;55.674;37.468;2022-08-19T04:51:48;9.55;;;4.57;;
49177;SDS011;35016;55.674;37.468;2022-08-19T04:54:18;9.90;;;4.68;;
49177;SDS011;35016;55.674;37.468;2022-08-19T04:57:04;9.38;;;4.45;;
49177;SDS011;35016;55.674;37.468;2022-08-19T04:59:34;9.88;;;4.32;;
49177;SDS011;35016;55.674;37.468;2022-08-19T05:02:02;10.13;;;5.72;;
49177;SDS011;35016;55.674;37.468;2022-08-19T05:04:30;10.98;;;5.30;;
49177;SDS011;35016;55.674;37.468;2022-08-19T05:06:59;12.25;;;5.95;;
49177;SDS011;35016;55.674;37.468;2022-08-19T05:09:28;11.52;;;5.15;;
49177;SDS011;35016;55.674;37.468;2022-08-19T05:12:16;9.10;;;4.85;;
49177;SDS011;35016;55.674;37.468;2022-08-19T05:14:44;9.35;;;5.20;;
49177;SDS011;35016;55.674;37.468;2022-08-19T05:17:15;10.55;;;5.43;;
49177;SDS011;35016;55.674;37.468;2022-08-19T05:19:54;11.23;;;5.40;;
49177;SDS011;35016;55.674;37.468;2022-08-19T05:22:45;10.05;;;4.90;;
49177;SDS011;35016;55.674;37.468;2022-08-19T05:25:15;10.02;;;4.88;;
49177;SDS011;35016;55.674;37.468;2022-08-19T05:27:46;11.30;;;5.57;;
49177;SDS011;35016;55.674;37.468;2022-08-19T05:30:14;10.13;;;5.35;;
49177;SDS011;35016;55.674;37.468;2022-08-19T05:32:42;10.75;;;6.43;;
49177;SDS011;35016;55.674;37.468;2022-08-19T05:35:09;10.85;;;5.53;;
49177;SDS011;35016;55.674;37.468;2022-08-19T05:37:47;11.13;;;4.80;;
49177;SDS011;35016;55.674;37.468;2022-08-19T05:40:37;11.93;;;5.53;;
49177;SDS011;35016;55.674;37.468;2022-08-19T05:43:06;13.00;;;5.75;;
49177;SDS011;35016;55.674;37.468;2022-08-19T05:45:37;9.68;;;5.85;;
49177;SDS011;35016;55.674;37.468;2022-08-19T05:48:08;9.65;;;4.80;;
49177;SDS011;35016;55.674;37.468;2022-08-19T05:50:40;12.27;;;5.65;;
49177;SDS011;35016;55.674;37.468;2022-08-19T05:53:08;10.98;;;5.22;;
49177;SDS011;35016;55.674;37.468;2022-08-19T05:55:35;10.07;;;5.10;;
49177;SDS011;35016;55.674;37.468;2022-08-19T05:58:05;10.23;;;6.35;;
49177;SDS011;35016;55.674;37.468;2022-08-19T06:00:35;9.45;;;4.72;;
49177;SDS011;35016;55.674;37.468;2022-08-19T06:03:03;11.35;;;4.85;;
49177;SDS011;35016;55.674;37.468;2022-08-19T06:05:38;9.77;;;5.68;;
49177;SDS011;35016;55.674;37.468;2022-08-19T06:08:17;11.45;;;4.63;;
49177;SDS011;35016;55.674;37.468;2022-08-19T06:10:45;12.40;;;5.93;;
49177;SDS011;35016;55.674;37.468;2022-08-19T06:13:12;13.52;;;5.53;;
49177;SDS011;35016;55.674;37.468;2022-08-19T06:15:40;9.75;;;4.88;;
49177;SDS011;35016;55.674;37.468;2022-08-19T06:18:10;11.10;;;5.85;;
49177;SDS011;35016;55.674;37.468;2022-08-19T06:20:41;11.93;;;5.45;;
49177;SDS011;35016;55.674;37.468;2022-08-19T06:23:21;11.90;;;6.18;;
49177;SDS011;35016;55.674;37.468;2022-08-19T06:25:50;10.20;;;5.30;;
49177;SDS011;35016;55.674;37.468;2022-08-19T06:28:17;9.63;;;5.40;;
49177;SDS011;35016;55.674;37.468;2022-08-19T06:30:44;13.02;;;5.63;;
49177;SDS011;35016;55.674;37.468;2022-08-19T06:33:11;12.18;;;5.15;;
49177;SDS011;35016;55.674;37.468;2022-08-19T06:35:39;10.38;;;4.60;;
49177;SDS011;35016;55.674;37.468;2022-08-19T06:38:33;9.48;;;5.38;;
49177;SDS011;35016;55.674;37.468;2022-08-19T06:41:01;10.52;;;5.20;;
49177;SDS011;35016;55.674;37.468;2022-08-19T06:43:33;9.82;;;5.25;;
49177;SDS011;35016;55.674;37.468;2022-08-19T06:46:14;11.20;;;4.30;;
49177;SDS011;35016;55.674;37.468;2022-08-19T06:48:44;11.23;;;4.72;;
49177;SDS011;35016;55.674;37.468;2022-08-19T06:51:13;10.20;;;5.15;;
49177;SDS011;35016;55.674;37.468;2022-08-19T06:53:52;13.02;;;5.38;;
49177;SDS011;35016;55.674;37.468;2022-08-19T06:56:22;11.45;;;5.40;;
49177;SDS011;35016;55.674;37.468;2022-08-19T06:58:58;13.40;;;5.18;;
49177;SDS011;35016;55.674;37.468;2022-08-19T07:01:54;8.60;;;4.63;;
49177;SDS011;35016;55.674;37.468;2022-08-19T07:04:26;10.32;;;5.07;;
49177;SDS011;35016;55.674;37.468;2022-08-19T07:07:01;13.13;;;5.97;;
49177;SDS011;35016;55.674;37.468;2022-08-19T07:09:47;11.18;;;6.20;;
49177;SDS011;35016;55.674;37.468;2022-08-19T07:12:26;11.07;;;5.30;;
49177;SDS011;35016;55.674;37.468;2022-08-19T07:15:02;12.00;;;5.78;;
49177;SDS011;35016;55.674;37.468;2022-08-19T07:17:31;12.38;;;4.60;;
49177;SDS011;35016;55.674;37.468;2022-08-19T07:20:00;14.18;;;5.75;;
49177;SDS011;35016;55.674;37.468;2022-08-19T07:22:38;11.55;;;5.80;;
49177;SDS011;35016;55.674;37.468;2022-08-19T07:25:06;12.68;;;4.78;;
49177;SDS011;35016;55.674;37.468;2022-08-19T07:27:36;12.88;;;6.00;;
49177;SDS011;35016;55.674;37.468;2022-08-19T07:30:06;10.43;;;5.85;;
49177;SDS011;35016;55.674;37.468;2022-08-19T07:32:37;9.40;;;5.13;;
49177;SDS011;35016;55.674;37.468;2022-08-19T07:35:05;11.40;;;5.47;;
49177;SDS011;35016;55.674;37.468;2022-08-19T07:37:33;9.52;;;5.30;;
49177;SDS011;35016;55.674;37.468;2022-08-19T07:40:03;10.80;;;4.90;;
49177;SDS011;35016;55.674;37.468;2022-08-19T07:42:32;9.93;;;4.40;;
49177;SDS011;35016;55.674;37.468;2022-08-19T07:44:59;10.88;;;5.82;;
49177;SDS011;35016;55.674;37.468;2022-08-19T07:47:28;11.15;;;5.22;;
49177;SDS011;35016;55.674;37.468;2022-08-19T07:50:14;8.65;;;5.03;;
49177;SDS011;35016;55.674;37.468;2022-08-19T07:52:41;9.57;;;4.90;;
49177;SDS011;35016;55.674;37.468;2022-08-19T07:55:15;9.52;;;5.13;;
49177;SDS011;35016;55.674;37.468;2022-08-19T07:58:04;10.35;;;4.68;;
49177;SDS011;35016;55.674;37.468;2022-08-19T08:00:31;10.63;;;5.57;;
49177;SDS011;35016;55.674;37.468;2022-08-19T08:02:58;9.02;;;4.80;;
49177;SDS011;35016;55.674;37.468;2022-08-19T08:05:28;10.07;;;4.82;;
49177;SDS011;35016;55.674;37.468;2022-08-19T08:08:14;10.60;;;4.35;;
49177;SDS011;35016;55.674;37.468;2022-08-19T08:10:59;10.02;;;4.00;;
49177;SDS011;35016;55.674;37.468;2022-08-19T08:13:27;9.85;;;4.93;;
49177;SDS011;35016;55.674;37.468;2022-08-19T08:15:55;9.85;;;4.25;;
49177;SDS011;35016;55.674;37.468;2022-08-19T08:18:23;7.85;;;3.75;;
49177;SDS011;35016;55.674;37.468;2022-08-19T08:20:54;9.25;;;4.03;;
49177;SDS011;35016;55.674;37.468;2022-08-19T08:23:24;10.27;;;4.55;;
49177;SDS011;35016;55.674;37.468;2022-08-19T08:25:53;9.18;;;4.45;;
49177;SDS011;35016;55.674;37.468;2022-08-19T08:28:24;8.85;;;3.58;;
49177;SDS011;35016;55.674;37.468;2022-08-19T08:30:55;10.85;;;4.10;;
49177;SDS011;35016;55.674;37.468;2022-08-19T08:33:24;9.45;;;4.65;;
49177;SDS011;35016;55.674;37.468;2022-08-19T08:36:09;10.30;;;5.57;;
49177;SDS011;35016;55.674;37.468;2022-08-19T08:38:38;10.32;;;5.32;;
49177;SDS011;35016;55.674;37.468;2022-08-19T08:44:01;9.70;;;4.10;;
49177;SDS011;35016;55.674;37.468;2022-08-19T08:46:38;8.93;;;4.25;;
49177;SDS011;35016;55.674;37.468;2022-08-19T08:49:16;8.10;;;4.75;;
49177;SDS011;35016;55.674;37.468;2022-08-19T08:52:05;12.32;;;4.70;;
49177;SDS011;35016;55.674;37.468;2022-08-19T08:54:41;8.63;;;4.45;;
49177;SDS011;35016;55.674;37.468;2022-08-19T09:00:18;8.13;;;3.92;;
49177;SDS011;35016;55.674;37.468;2022-08-19T09:02:49;13.00;;;4.65;;
49177;SDS011;35016;55.674;37.468;2022-08-19T09:05:18;14.57;;;4.47;;
49177;SDS011;35016;55.674;37.468;2022-08-19T09:18:52;11.73;;;3.47;;
49177;SDS011;35016;55.674;37.468;2022-08-19T09:21:24;7.75;;;3.38;;
49177;SDS011;35016;55.674;37.468;2022-08-19T09:23:59;8.73;;;3.22;;
49177;SDS011;35016;55.674;37.468;2022-08-19T09:26:29;8.00;;;4.13;;
49177;SDS011;35016;55.674;37.468;2022-08-19T09:29:20;11.00;;;4.60;;
49177;SDS011;35016;55.674;37.468;2022-08-19T09:31:48;8.05;;;4.00;;
49177;SDS011;35016;55.674;37.468;2022-08-19T09:34:16;8.15;;;3.58;;
49177;SDS011;35016;55.674;37.468;2022-08-19T09:36:48;9.02;;;4.03;;
49177;SDS011;35016;55.674;37.468;2022-08-19T09:39:20;9.07;;;3.85;;
49177;SDS011;35016;55.674;37.468;2022-08-19T09:41:48;9.30;;;4.35;;
49177;SDS011;35016;55.674;37.468;2022-08-19T09:44:18;9.90;;;3.88;;
49177;SDS011;35016;55.674;37.468;2022-08-19T09:46:52;10.23;;;4.93;;
49177;SDS011;35016;55.674;37.468;2022-08-19T09:49:23;7.75;;;3.67;;
49177;SDS011;35016;55.674;37.468;2022-08-19T09:51:51;9.43;;;4.47;;
49177;SDS011;35016;55.674;37.468;2022-08-19T09:54:22;10.05;;;5.18;;
49177;SDS011;35016;55.674;37.468;2022-08-19T09:56:53;10.25;;;4.25;;
49177;SDS011;35016;55.674;37.468;2022-08-19T09:59:38;9.57;;;4.43;;
49177;SDS011;35016;55.674;37.468;2022-08-19T10:02:06;9.25;;;4.47;;
49177;SDS011;35016;55.674;37.468;2022-08-19T10:04:36;8.13;;;5.00;;
49177;SDS011;35016;55.674;37.468;2022-08-19T10:07:22;9.55;;;4.35;;
49177;SDS011;35016;55.674;37.468;2022-08-19T10:10:05;7.38;;;3.60;;
49177;SDS011;35016;55.674;37.468;2022-08-19T10:12:33;11.40;;;4.78;;
49177;SDS011;35016;55.674;37.468;2022-08-19T10:15:01;10.10;;;3.75;;
49177;SDS011;35016;55.674;37.468;2022-08-19T10:17:28;9.70;;;3.40;;
49177;SDS011;35016;55.674;37.468;2022-08-19T10:19:59;8.35;;;3.05;;
49177;SDS011;35016;55.674;37.468;2022-08-19T10:22:26;7.45;;;2.90;;
49177;SDS011;35016;55.674;37.468;2022-08-19T10:24:53;7.50;;;2.97;;
49177;SDS011;35016;55.674;37.468;2022-08-19T10:27:20;7.15;;;3.45;;
49177;SDS011;35016;55.674;37.468;2022-08-19T10:29:48;8.50;;;3.20;;
49177;SDS011;35016;55.674;37.468;2022-08-19T10:32:15;8.75;;;2.97;;
49177;SDS011;35016;55.674;37.468;2022-08-19T10:34:42;8.13;;;3.30;;
49177;SDS011;35016;55.674;37.468;2022-08-19T10:37:15;8.63;;;2.95;;
49177;SDS011;35016;55.674;37.468;2022-08-19T10:39:54;11.35;;;3.35;;
49177;SDS011;35016;55.674;37.468;2022-08-19T10:42:21;8.90;;;3.00;;
49177;SDS011;35016;55.674;37.468;2022-08-19T10:44:49;9.93;;;3.55;;
49177;SDS011;35016;55.674;37.468;2022-08-19T10:47:19;8.45;;;3.53;;
49177;SDS011;35016;55.674;37.468;2022-08-19T10:49:52;7.85;;;3.08;;
49177;SDS011;35016;55.674;37.468;2022-08-19T10:52:54;12.40;;;3.25;;
49177;SDS011;35016;55.674;37.468;2022-08-19T10:55:23;7.90;;;2.95;;
49177;SDS011;35016;55.674;37.468;2022-08-19T10:58:10;7.70;;;2.65;;
49177;SDS011;35016;55.674;37.468;2022-08-19T11:00:51;7.88;;;2.55;;
49177;SDS011;35016;55.674;37.468;2022-08-19T11:03:24;13.65;;;3.92;;
49177;SDS011;35016;55.674;37.468;2022-08-19T11:05:58;10.10;;;3.33;;
49177;SDS011;35016;55.674;37.468;2022-08-19T11:10:54;5.95;;;2.40;;
49177;SDS011;35016;55.674;37.468;2022-08-19T11:13:24;9.90;;;2.97;;
49177;SDS011;35016;55.674;37.468;2022-08-19T11:16:02;14.85;;;3.72;;
49177;SDS011;35016;55.674;37.468;2022-08-19T11:18:35;8.02;;;3.30;;
49177;SDS011;35016;55.674;37.468;2022-08-19T11:21:07;6.85;;;2.67;;
49177;SDS011;35016;55.674;37.468;2022-08-19T11:23:40;7.50;;;2.20;;
49177;SDS011;35016;55.674;37.468;2022-08-19T11:26:07;10.52;;;3.20;;
49177;SDS011;35016;55.674;37.468;2022-08-19T11:28:35;8.93;;;3.83;;
49177;SDS011;35016;55.674;37.468;2022-08-19T11:31:03;10.05;;;3.38;;
49177;SDS011;35016;55.674;37.468;2022-08-19T11:33:30;7.70;;;3.53;;
49177;SDS011;35016;55.674;37.468;2022-08-19T11:35:58;8.27;;;3.03;;
49177;SDS011;35016;55.674;37.468;2022-08-19T11:38:27;8.77;;;2.38;;
49177;SDS011;35016;55.674;37.468;2022-08-19T11:40:58;8.27;;;3.00;;
49177;SDS011;35016;55.674;37.468;2022-08-19T11:43:27;7.55;;;3.15;;
49177;SDS011;35016;55.674;37.468;2022-08-19T11:45:58;12.03;;;3.60;;
49177;SDS011;35016;55.674;37.468;2022-08-19T11:48:25;8.48;;;3.20;;
49177;SDS011;35016;55.674;37.468;2022-08-19T11:50:53;8.88;;;3.80;;
49177;SDS011;35016;55.674;37.468;2022-08-19T11:53:23;8.65;;;3.40;;
49177;SDS011;35016;55.674;37.468;2022-08-19T11:55:53;9.23;;;4.05;;
49177;SDS011;35016;55.674;37.468;2022-08-19T11:58:23;9.88;;;3.63;;
49177;SDS011;35016;55.674;37.468;2022-08-19T12:00:51;8.50;;;3.80;;
49177;SDS011;35016;55.674;37.468;2022-08-19T12:03:19;6.80;;;2.67;;
49177;SDS011;35016;55.674;37.468;2022-08-19T12:05:49;9.02;;;3.67;;
49177;SDS011;35016;55.674;37.468;2022-08-19T12:08:17;8.77;;;3.25;;
49177;SDS011;35016;55.674;37.468;2022-08-19T12:10:45;9.45;;;3.72;;
49177;SDS011;35016;55.674;37.468;2022-08-19T12:13:12;9.27;;;3.65;;
49177;SDS011;35016;55.674;37.468;2022-08-19T12:15:46;9.48;;;3.88;;
49177;SDS011;35016;55.674;37.468;2022-08-19T12:18:13;10.52;;;4.40;;
49177;SDS011;35016;55.674;37.468;2022-08-19T12:20:42;7.78;;;3.25;;
49177;SDS011;35016;55.674;37.468;2022-08-19T12:23:10;7.93;;;3.58;;
49177;SDS011;35016;55.674;37.468;2022-08-19T12:25:43;8.30;;;3.88;;
49177;SDS011;35016;55.674;37.468;2022-08-19T12:28:19;10.05;;;4.00;;
49177;SDS011;35016;55.674;37.468;2022-08-19T12:30:47;11.45;;;3.75;;
49177;SDS011;35016;55.674;37.468;2022-08-19T12:33:17;9.18;;;3.75;;
49177;SDS011;35016;55.674;37.468;2022-08-19T12:35:49;9.38;;;3.25;;
49177;SDS011;35016;55.674;37.468;2022-08-19T12:38:21;9.20;;;3.88;;
49177;SDS011;35016;55.674;37.468;2022-08-19T12:40:51;7.40;;;3.60;;
49177;SDS011;35016;55.674;37.468;2022-08-19T12:43:24;9.18;;;3.80;;
49177;SDS011;35016;55.674;37.468;2022-08-19T12:45:51;10.15;;;3.25;;
49177;SDS011;35016;55.674;37.468;2022-08-19T12:48:18;10.10;;;4.28;;
49177;SDS011;35016;55.674;37.468;2022-08-19T12:51:00;7.32;;;3.50;;
49177;SDS011;35016;55.674;37.468;2022-08-19T12:53:28;9.95;;;3.15;;
49177;SDS011;35016;55.674;37.468;2022-08-19T12:55:56;12.20;;;3.75;;
49177;SDS011;35016;55.674;37.468;2022-08-19T12:58:23;9.57;;;4.68;;
49177;SDS011;35016;55.674;37.468;2022-08-19T13:00:52;8.15;;;3.83;;
49177;SDS011;35016;55.674;37.468;2022-08-19T13:03:23;8.27;;;3.60;;
49177;SDS011;35016;55.674;37.468;2022-08-19T13:05:56;8.00;;;3.65;;
49177;SDS011;35016;55.674;37.468;2022-08-19T13:08:24;11.90;;;4.50;;
49177;SDS011;35016;55.674;37.468;2022-08-19T13:10:51;9.10;;;5.03;;
49177;SDS011;35016;55.674;37.468;2022-08-19T13:13:20;7.57;;;3.85;;
49177;SDS011;35016;55.674;37.468;2022-08-19T13:15:47;10.32;;;5.13;;
49177;SDS011;35016;55.674;37.468;2022-08-19T13:18:14;9.68;;;4.50;;
49177;SDS011;35016;55.674;37.468;2022-08-19T13:20:41;9.90;;;4.18;;
49177;SDS011;35016;55.674;37.468;2022-08-19T13:23:18;8.65;;;4.32;;
49177;SDS011;35016;55.674;37.468;2022-08-19T13:25:44;8.50;;;4.28;;
49177;SDS011;35016;55.674;37.468;2022-08-19T13:28:21;9.60;;;4.47;;
49177;SDS011;35016;55.674;37.468;2022-08-19T13:30:54;13.02;;;4.30;;
49177;SDS011;35016;55.674;37.468;2022-08-19T13:33:42;9.30;;;4.65;;
49177;SDS011;35016;55.674;37.468;2022-08-19T13:36:12;9.52;;;4.80;;
49177;SDS011;35016;55.674;37.468;2022-08-19T13:38:40;10.75;;;5.20;;
49177;SDS011;35016;55.674;37.468;2022-08-19T13:41:07;11.13;;;6.15;;
49177;SDS011;35016;55.674;37.468;2022-08-19T13:43:40;11.90;;;5.63;;
49177;SDS011;35016;55.674;37.468;2022-08-19T13:46:09;10.82;;;6.78;;
49177;SDS011;35016;55.674;37.468;2022-08-19T13:48:40;12.00;;;5.57;;
49177;SDS011;35016;55.674;37.468;2022-08-19T13:51:08;10.50;;;6.13;;
49177;SDS011;35016;55.674;37.468;2022-08-19T13:53:37;15.70;;;7.25;;
49177;SDS011;35016;55.674;37.468;2022-08-19T13:56:05;9.07;;;5.97;;
49177;SDS011;35016;55.674;37.468;2022-08-19T13:58:40;11.70;;;8.18;;
49177;SDS011;35016;55.674;37.468;2022-08-19T14:01:08;14.48;;;12.48;;
49177;SDS011;35016;55.674;37.468;2022-08-19T14:03:36;14.95;;;13.40;;
49177;SDS011;35016;55.674;37.468;2022-08-19T14:06:04;15.25;;;12.15;;
49177;SDS011;35016;55.674;37.468;2022-08-19T14:08:31;15.10;;;11.32;;
49177;SDS011;35016;55.674;37.468;2022-08-19T14:10:58;14.57;;;11.73;;
49177;SDS011;35016;55.674;37.468;2022-08-19T14:13:31;12.48;;;11.00;;
49177;SDS011;35016;55.674;37.468;2022-08-19T14:16:00;15.13;;;13.50;;
49177;SDS011;35016;55.674;37.468;2022-08-19T14:18:27;15.05;;;13.45;;
49177;SDS011;35016;55.674;37.468;2022-08-19T14:20:56;18.20;;;16.48;;
49177;SDS011;35016;55.674;37.468;2022-08-19T14:23:24;21.20;;;17.77;;
49177;SDS011;35016;55.674;37.468;2022-08-19T14:25:51;20.02;;;17.92;;
49177;SDS011;35016;55.674;37.468;2022-08-19T14:28:18;19.90;;;18.00;;
49177;SDS011;35016;55.674;37.468;2022-08-19T14:30:51;19.02;;;17.02;;
49177;SDS011;35016;55.674;37.468;2022-08-19T14:33:22;19.38;;;15.65;;
49177;SDS011;35016;55.674;37.468;2022-08-19T14:35:53;15.15;;;13.55;;
49177;SDS011;35016;55.674;37.468;2022-08-19T14:38:25;16.60;;;14.05;;
49177;SDS011;35016;55.674;37.468;2022-08-19T14:41:07;15.70;;;14.07;;
49177;SDS011;35016;55.674;37.468;2022-08-19T14:43:43;13.25;;;10.82;;
49177;SDS011;35016;55.674;37.468;2022-08-19T14:46:15;14.70;;;11.60;;
49177;SDS011;35016;55.674;37.468;2022-08-19T14:48:47;13.77;;;10.75;;
49177;SDS011;35016;55.674;37.468;2022-08-19T14:51:18;12.93;;;10.27;;
49177;SDS011;35016;55.674;37.468;2022-08-19T14:53:46;13.35;;;11.57;;
49177;SDS011;35016;55.674;37.468;2022-08-19T14:56:17;18.08;;;15.63;;
49177;SDS011;35016;55.674;37.468;2022-08-19T14:58:48;22.23;;;20.10;;
49177;SDS011;35016;55.674;37.468;2022-08-19T15:01:19;23.33;;;20.83;;
49177;SDS011;35016;55.674;37.468;2022-08-19T15:03:49;27.77;;;23.52;;
49177;SDS011;35016;55.674;37.468;2022-08-19T15:06:23;24.83;;;22.00;;
49177;SDS011;35016;55.674;37.468;2022-08-19T15:08:51;26.27;;;23.67;;
49177;SDS011;35016;55.674;37.468;2022-08-19T15:11:20;25.88;;;23.35;;
49177;SDS011;35016;55.674;37.468;2022-08-19T15:13:50;25.58;;;22.98;;
49177;SDS011;35016;55.674;37.468;2022-08-19T15:16:19;24.77;;;22.38;;
49177;SDS011;35016;55.674;37.468;2022-08-19T15:18:50;22.88;;;20.48;;
49177;SDS011;35016;55.674;37.468;2022-08-19T15:21:21;23.23;;;20.83;;